Time;durP1;ratioP1;P1;durP2;ratioP2;P2;SDS_P1;SDS_P2;PMS_P1;PMS_P2;Temp;Humidity;BMP_temperature;BMP_pressure;BME280_temperature;BME280_humidity;BME280_pressure;Samples;Min_cycle;Max_cycle;Signal;HPM_P1;HPM_P2
2022/05/22 00:01:41;;;;;;;0.10;0.10;;;;;;;;;;5114399;28;20053;-80
2022/05/22 00:04:07;;;;;;;0.10;0.10;;;;;;;;;;5096000;28;20062;-80
2022/05/22 00:06:34;;;;;;;0.10;0.10;;;;;;;;;;5114226;28;20379;-80
2022/05/22 00:09:00;;;;;;;0.10;0.10;;;;;;;;;;5114553;28;20161;-81
2022/05/22 00:11:26;;;;;;;0.10;0.10;;;;;;;;;;5095792;28;20065;-80
2022/05/22 00:13:52;;;;;;;0.10;0.10;;;;;;;;;;5096246;28;20031;-80
2022/05/22 00:16:37;;;;;;;0.10;0.10;;;;;;;;;;5114236;28;20105;-81
2022/05/22 00:19:06;;;;;;;0.10;0.10;;;;;;;;;;5114552;28;20030;-80
2022/05/22 00:21:32;;;;;;;0.10;0.10;;;;;;;;;;5114281;28;20044;-80
2022/05/22 00:23:58;;;;;;;0.10;0.10;;;;;;;;;;5113679;28;20161;-80
2022/05/22 00:26:24;;;;;;;0.10;0.10;;;;;;;;;;5095883;28;20526;-80
2022/05/22 00:28:51;;;;;;;0.10;0.10;;;;;;;;;;5094967;28;20035;-81
2022/05/22 00:31:17;;;;;;;0.10;0.10;;;;;;;;;;5113663;28;20048;-81
2022/05/22 00:33:43;;;;;;;0.10;0.10;;;;;;;;;;5113955;28;20484;-80
2022/05/22 00:36:10;;;;;;;0.10;0.10;;;;;;;;;;5094984;28;20059;-80
2022/05/22 00:38:36;;;;;;;0.10;0.10;;;;;;;;;;5095212;28;20403;-80
2022/05/22 00:41:02;;;;;;;0.10;0.10;;;;;;;;;;5113517;28;20055;-80
2022/05/22 00:43:28;;;;;;;0.10;0.10;;;;;;;;;;5113496;28;20023;-79
2022/05/22 00:45:55;;;;;;;0.10;0.10;;;;;;;;;;5095812;28;20055;-80
2022/05/22 00:48:21;;;;;;;0.10;0.10;;;;;;;;;;5113906;28;20019;-80
2022/05/22 00:50:47;;;;;;;0.10;0.10;;;;;;;;;;5095427;28;20031;-80
2022/05/22 00:53:13;;;;;;;0.10;0.10;;;;;;;;;;5094714;28;20019;-80
2022/05/22 00:55:40;;;;;;;0.20;0.20;;;;;;;;;;5113494;28;20089;-80
2022/05/22 00:58:10;;;;;;;0.10;0.10;;;;;;;;;;5095328;28;20023;-80
2022/05/22 01:00:36;;;;;;;0.10;0.10;;;;;;;;;;5094789;28;20031;-80
2022/05/22 01:05:50;;;;;;;0.10;0.10;;;;;;;;;;5113151;28;20093;-80
2022/05/22 01:08:16;;;;;;;0.10;0.10;;;;;;;;;;5094464;28;20035;-81
2022/05/22 01:10:47;;;;;;;0.05;0.05;;;;;;;;;;5094965;28;20435;-80
2022/05/22 01:13:14;;;;;;;0.10;0.10;;;;;;;;;;5112556;28;20114;-81
2022/05/22 01:15:40;;;;;;;0.10;0.10;;;;;;;;;;5094591;28;20517;-80
2022/05/22 01:18:07;;;;;;;0.10;0.10;;;;;;;;;;5113241;28;20043;-80
2022/05/22 01:20:33;;;;;;;0.10;0.10;;;;;;;;;;5113067;28;20494;-80
2022/05/22 01:22:59;;;;;;;0.10;0.10;;;;;;;;;;5095004;28;20398;-80
2022/05/22 01:25:25;;;;;;;0.10;0.10;;;;;;;;;;5095193;28;20027;-80
2022/05/22 01:27:52;;;;;;;0.10;0.10;;;;;;;;;;5112635;28;20024;-80
2022/05/22 01:30:21;;;;;;;0.10;0.10;;;;;;;;;;5112658;28;20051;-80
2022/05/22 01:32:48;;;;;;;0.10;0.10;;;;;;;;;;5094720;28;20019;-80
2022/05/22 01:35:16;;;;;;;0.10;0.10;;;;;;;;;;5093580;28;20063;-80
2022/05/22 01:37:43;;;;;;;0.10;0.10;;;;;;;;;;5111554;28;20031;-80
2022/05/22 01:40:09;;;;;;;0.10;0.10;;;;;;;;;;5094279;28;20030;-81
2022/05/22 01:42:36;;;;;;;0.10;0.10;;;;;;;;;;5093985;28;20023;-80
2022/05/22 01:45:03;;;;;;;0.10;0.10;;;;;;;;;;5093776;28;20399;-80
2022/05/22 01:47:32;;;;;;;0.10;0.10;;;;;;;;;;5094803;28;20023;-80
2022/05/22 01:49:58;;;;;;;0.10;0.10;;;;;;;;;;5112475;28;20015;-80
2022/05/22 01:52:24;;;;;;;0.10;0.10;;;;;;;;;;5112545;28;20127;-80
2022/05/22 01:54:50;;;;;;;0.10;0.10;;;;;;;;;;5112170;28;20387;-80
2022/05/22 01:57:16;;;;;;;0.10;0.10;;;;;;;;;;5112542;28;20035;-81
2022/05/22 01:59:42;;;;;;;0.10;0.10;;;;;;;;;;5112086;28;20024;-80
2022/05/22 02:02:08;;;;;;;0.10;0.10;;;;;;;;;;5111918;28;20027;-80
2022/05/22 02:04:34;;;;;;;0.10;0.10;;;;;;;;;;5111896;28;20475;-80
2022/05/22 02:09:45;;;;;;;0.10;0.10;;;;;;;;;;5112402;28;20045;-80
2022/05/22 02:12:12;;;;;;;0.10;0.10;;;;;;;;;;5112297;28;20023;-80
2022/05/22 02:14:38;;;;;;;0.10;0.10;;;;;;;;;;5112102;28;20501;-81
2022/05/22 02:17:04;;;;;;;0.10;0.10;;;;;;;;;;5112179;28;20483;-80
2022/05/22 02:19:30;;;;;;;0.13;0.13;;;;;;;;;;5112176;28;20023;-80
2022/05/22 02:21:56;;;;;;;0.10;0.10;;;;;;;;;;5093968;28;20094;-80
2022/05/22 02:24:22;;;;;;;0.10;0.10;;;;;;;;;;5111903;28;20024;-80
2022/05/22 02:26:48;;;;;;;0.10;0.10;;;;;;;;;;5112079;28;20023;-80
2022/05/22 02:29:14;;;;;;;0.10;0.10;;;;;;;;;;5111468;28;20038;-80
2022/05/22 02:31:40;;;;;;;0.05;0.05;;;;;;;;;;5111867;28;20030;-80
2022/05/22 02:34:06;;;;;;;0.10;0.10;;;;;;;;;;5111475;28;20028;-80
2022/05/22 02:36:32;;;;;;;0.10;0.10;;;;;;;;;;5111858;28;20448;-81
2022/05/22 02:38:58;;;;;;;0.10;0.10;;;;;;;;;;5093518;28;20024;-81
2022/05/22 02:41:25;;;;;;;0.10;0.10;;;;;;;;;;5111748;28;20034;-81
2022/05/22 02:43:51;;;;;;;0.10;0.10;;;;;;;;;;5093318;28;20032;-80
2022/05/22 02:46:18;;;;;;;0.10;0.10;;;;;;;;;;5111410;28;20024;-80
2022/05/22 02:48:44;;;;;;;0.10;0.10;;;;;;;;;;5115602;28;20051;-80
2022/05/22 02:51:11;;;;;;;0.10;0.10;;;;;;;;;;5116035;28;20063;-81
2022/05/22 02:53:37;;;;;;;0.10;0.10;;;;;;;;;;5115964;28;20031;-80
2022/05/22 02:56:07;;;;;;;0.10;0.10;;;;;;;;;;5116246;28;20043;-80
2022/05/22 02:58:33;;;;;;;0.10;0.10;;;;;;;;;;5116496;28;20026;-80
2022/05/22 03:00:59;;;;;;;0.10;0.10;;;;;;;;;;5115859;28;20490;-80
2022/05/22 03:03:25;;;;;;;0.00;0.00;;;;;;;;;;5115331;28;20110;-81
2022/05/22 03:08:36;;;;;;;0.10;0.10;;;;;;;;;;5115769;28;20039;-80
2022/05/22 03:11:05;;;;;;;0.10;0.10;;;;;;;;;;5116026;28;20020;-80
2022/05/22 03:13:31;;;;;;;0.10;0.10;;;;;;;;;;5115903;28;20028;-81
2022/05/22 03:15:58;;;;;;;0.10;0.10;;;;;;;;;;5096833;28;20092;-81
2022/05/22 03:18:24;;;;;;;0.10;0.10;;;;;;;;;;5115629;28;20023;-81
2022/05/22 03:20:50;;;;;;;0.10;0.10;;;;;;;;;;5115221;28;20031;-80
2022/05/22 03:23:16;;;;;;;0.10;0.10;;;;;;;;;;5115421;28;20027;-81
2022/05/22 03:25:43;;;;;;;0.00;0.00;;;;;;;;;;5115414;28;20489;-80
2022/05/22 03:28:09;;;;;;;0.10;0.10;;;;;;;;;;5097067;28;20060;-80
2022/05/22 03:30:35;;;;;;;0.10;0.10;;;;;;;;;;5115257;28;20410;-80
2022/05/22 03:33:01;;;;;;;0.10;0.10;;;;;;;;;;5097374;28;20372;-80
2022/05/22 03:35:27;;;;;;;0.10;0.10;;;;;;;;;;5115143;28;20028;-79
2022/05/22 03:37:53;;;;;;;0.10;0.10;;;;;;;;;;5115126;28;20024;-80
2022/05/22 03:40:19;;;;;;;0.10;0.10;;;;;;;;;;5115077;28;20428;-79
2022/05/22 03:42:45;;;;;;;0.10;0.10;;;;;;;;;;5096891;28;20024;-80
2022/05/22 03:45:11;;;;;;;0.10;0.10;;;;;;;;;;5096047;28;20027;-80
2022/05/22 03:47:40;;;;;;;0.10;0.10;;;;;;;;;;5114993;28;20047;-79
2022/05/22 03:50:07;;;;;;;0.10;0.10;;;;;;;;;;5115154;28;20478;-80
2022/05/22 03:52:35;;;;;;;0.10;0.10;;;;;;;;;;5096932;28;20030;-80
2022/05/22 03:55:01;;;;;;;0.10;0.10;;;;;;;;;;5114726;28;20031;-81
2022/05/22 03:57:27;;;;;;;0.10;0.10;;;;;;;;;;5114470;28;20024;-82
2022/05/22 03:59:53;;;;;;;0.10;0.10;;;;;;;;;;5095539;28;20118;-81
2022/05/22 04:02:19;;;;;;;0.10;0.10;;;;;;;;;;5096437;28;20023;-82
2022/05/22 04:04:45;;;;;;;0.10;0.10;;;;;;;;;;5096338;28;20032;-81
2022/05/22 04:07:11;;;;;;;0.15;0.15;;;;;;;;;;5114654;28;20026;-81
2022/05/22 04:09:37;;;;;;;0.10;0.10;;;;;;;;;;5096152;28;20122;-82
2022/05/22 04:12:07;;;;;;;0.10;0.10;;;;;;;;;;5096496;28;20023;-82
2022/05/22 04:14:33;;;;;;;0.10;0.10;;;;;;;;;;5114326;28;20072;-80
2022/05/22 04:16:59;;;;;;;0.00;0.00;;;;;;;;;;5095366;28;20134;-81
2022/05/22 04:19:25;;;;;;;0.10;0.10;;;;;;;;;;5113987;28;20059;-82
2022/05/22 04:21:52;;;;;;;0.10;0.10;;;;;;;;;;5114372;28;20131;-81
2022/05/22 04:27:03;;;;;;;0.10;0.10;;;;;;;;;;5114180;28;20084;-81
2022/05/22 04:29:33;;;;;;;0.10;0.10;;;;;;;;;;5114196;28;20487;-81
2022/05/22 04:31:59;;;;;;;0.10;0.10;;;;;;;;;;5114206;28;20031;-82
2022/05/22 04:34:25;;;;;;;0.10;0.10;;;;;;;;;;5095150;28;20402;-81
2022/05/22 04:36:51;;;;;;;0.10;0.10;;;;;;;;;;5113865;28;20078;-81
2022/05/22 04:39:17;;;;;;;0.10;0.10;;;;;;;;;;5113843;28;20020;-82
2022/05/22 04:41:43;;;;;;;0.10;0.10;;;;;;;;;;5113725;28;20031;-81
2022/05/22 04:44:09;;;;;;;0.10;0.10;;;;;;;;;;5114223;28;20463;-81
2022/05/22 04:46:35;;;;;;;0.10;0.10;;;;;;;;;;5095828;28;20030;-82
2022/05/22 04:49:01;;;;;;;0.10;0.10;;;;;;;;;;5095424;28;20106;-81
2022/05/22 04:51:27;;;;;;;0.10;0.10;;;;;;;;;;5113806;28;20024;-82
2022/05/22 04:53:54;;;;;;;0.10;0.10;;;;;;;;;;5095238;28;20024;-82
2022/05/22 04:56:20;;;;;;;0.10;0.10;;;;;;;;;;5113663;28;20111;-82
2022/05/22 04:58:46;;;;;;;0.10;0.10;;;;;;;;;;5095474;28;20069;-81
2022/05/22 05:01:12;;;;;;;0.10;0.10;;;;;;;;;;5095434;28;20058;-81
2022/05/22 05:03:38;;;;;;;0.10;0.10;;;;;;;;;;5113898;28;20020;-81
2022/05/22 05:06:05;;;;;;;0.10;0.10;;;;;;;;;;5095238;28;20131;-82
2022/05/22 05:08:31;;;;;;;0.10;0.10;;;;;;;;;;5113434;28;20421;-82
2022/05/22 05:10:58;;;;;;;0.10;0.10;;;;;;;;;;5113300;28;20027;-82
2022/05/22 05:13:24;;;;;;;0.10;0.10;;;;;;;;;;5113304;28;20035;-83
2022/05/22 05:16:05;;;;;;;0.10;0.10;;;;;;;;;;5113375;28;20458;-84
2022/05/22 05:18:32;;;;;;;0.10;0.10;;;;;;;;;;5113443;28;20614;-81
2022/05/22 05:21:00;;;;;;;0.10;0.10;;;;;;;;;;5113365;28;20023;-83
2022/05/22 05:23:26;;;;;;;0.10;0.10;;;;;;;;;;5113050;28;20035;-83
2022/05/22 05:25:52;;;;;;;0.10;0.10;;;;;;;;;;5113316;28;20016;-84
2022/05/22 05:28:18;;;;;;;0.10;0.10;;;;;;;;;;5094854;28;20395;-83
2022/05/22 05:30:44;;;;;;;0.10;0.10;;;;;;;;;;5094814;28;20024;-82
2022/05/22 05:33:10;;;;;;;0.10;0.10;;;;;;;;;;5113413;28;20691;-84
2022/05/22 05:35:36;;;;;;;0.10;0.10;;;;;;;;;;5113037;28;20054;-83
2022/05/22 05:38:03;;;;;;;0.10;0.10;;;;;;;;;;5094796;28;20026;-83
2022/05/22 05:40:29;;;;;;;0.10;0.10;;;;;;;;;;5094128;28;20027;-83
2022/05/22 05:42:55;;;;;;;0.10;0.10;;;;;;;;;;5113041;28;20034;-82
2022/05/22 05:45:21;;;;;;;0.10;0.10;;;;;;;;;;5124677;27;20034;-83
2022/05/22 05:47:48;;;;;;;0.10;0.10;;;;;;;;;;5131559;27;20038;-83
2022/05/22 05:50:16;;;;;;;0.10;0.10;;;;;;;;;;5118182;27;20023;-83
2022/05/22 05:52:42;;;;;;;0.10;0.10;;;;;;;;;;5113346;28;20100;-83
2022/05/22 05:55:09;;;;;;;0.10;0.10;;;;;;;;;;5112740;28;20028;-83
2022/05/22 05:57:35;;;;;;;0.10;0.10;;;;;;;;;;5112724;28;20035;-84
2022/05/22 06:00:01;;;;;;;0.10;0.10;;;;;;;;;;5112797;28;20153;-83
2022/05/22 06:02:28;;;;;;;0.10;0.10;;;;;;;;;;5094401;28;20079;-83
2022/05/22 06:04:54;;;;;;;0.10;0.10;;;;;;;;;;5112860;27;20023;-85
2022/05/22 06:07:20;;;;;;;0.10;0.10;;;;;;;;;;5112972;28;20387;-82
2022/05/22 06:09:46;;;;;;;0.10;0.10;;;;;;;;;;5112689;28;20026;-84
2022/05/22 06:12:12;;;;;;;0.10;0.10;;;;;;;;;;5112805;28;20027;-83
2022/05/22 06:14:38;;;;;;;0.10;0.10;;;;;;;;;;5112144;28;20456;-81
2022/05/22 06:17:05;;;;;;;0.10;0.10;;;;;;;;;;5113066;27;20035;-81
2022/05/22 06:22:16;;;;;;;0.10;0.10;;;;;;;;;;5129720;27;20085;-81
2022/05/22 06:24:43;;;;;;;0.10;0.10;;;;;;;;;;5127129;27;20069;-83
2022/05/22 06:27:09;;;;;;;0.10;0.10;;;;;;;;;;5099308;28;20487;-84
2022/05/22 06:29:35;;;;;;;0.10;0.10;;;;;;;;;;5112181;28;20064;-83
2022/05/22 06:32:01;;;;;;;0.10;0.10;;;;;;;;;;5112223;28;20028;-82
2022/05/22 06:34:27;;;;;;;0.10;0.10;;;;;;;;;;5112006;28;20024;-82
2022/05/22 06:36:53;;;;;;;0.10;0.10;;;;;;;;;;5112190;28;20031;-82
2022/05/22 06:42:04;;;;;;;0.10;0.10;;;;;;;;;;5112026;28;20038;-80
2022/05/22 06:44:30;;;;;;;0.10;0.10;;;;;;;;;;5113920;28;20024;-81
2022/05/22 06:46:56;;;;;;;0.10;0.10;;;;;;;;;;5132680;28;20030;-82
2022/05/22 06:49:22;;;;;;;0.10;0.10;;;;;;;;;;5132873;28;20020;-81
2022/05/22 06:51:48;;;;;;;0.10;0.10;;;;;;;;;;5129325;28;20034;-81
2022/05/22 06:54:15;;;;;;;0.10;0.10;;;;;;;;;;5132922;28;20106;-82
2022/05/22 06:56:41;;;;;;;0.10;0.10;;;;;;;;;;5099919;28;20040;-82
2022/05/22 06:59:07;;;;;;;0.10;0.10;;;;;;;;;;5111953;28;20035;-84
2022/05/22 07:01:33;;;;;;;0.10;0.10;;;;;;;;;;5111922;28;20023;-82
2022/05/22 07:03:59;;;;;;;0.10;0.10;;;;;;;;;;5098549;28;20603;-81
2022/05/22 07:06:25;;;;;;;0.10;0.10;;;;;;;;;;5121231;28;20059;-81
2022/05/22 07:08:51;;;;;;;0.10;0.10;;;;;;;;;;5111344;28;20027;-82
2022/05/22 07:14:01;;;;;;;0.10;0.10;;;;;;;;;;5111824;28;20156;-80
2022/05/22 07:16:27;;;;;;;0.10;0.10;;;;;;;;;;5111641;28;20068;-81
2022/05/22 07:18:53;;;;;;;0.10;0.10;;;;;;;;;;5111339;28;20031;-81
2022/05/22 07:21:19;;;;;;;0.10;0.10;;;;;;;;;;5111562;28;20039;-87
2022/05/22 07:23:45;;;;;;;0.10;0.10;;;;;;;;;;5111973;28;20023;-79
2022/05/22 07:26:12;;;;;;;0.10;0.10;;;;;;;;;;5111439;28;20107;-80
2022/05/22 07:28:38;;;;;;;0.10;0.10;;;;;;;;;;5093230;28;20038;-79
2022/05/22 07:31:04;;;;;;;0.08;0.08;;;;;;;;;;5111715;28;20027;-86
2022/05/22 07:33:30;;;;;;;0.10;0.10;;;;;;;;;;5111814;28;20031;-78
2022/05/22 07:35:57;;;;;;;0.10;0.10;;;;;;;;;;5134362;27;20418;-79
2022/05/22 07:38:24;;;;;;;0.13;0.13;;;;;;;;;;5135810;27;20024;-79
2022/05/22 07:40:51;;;;;;;0.10;0.10;;;;;;;;;;5135781;27;20027;-78
2022/05/22 07:43:17;;;;;;;0.10;0.10;;;;;;;;;;5123210;27;20475;-78
2022/05/22 07:45:44;;;;;;;0.10;0.10;;;;;;;;;;5115073;28;20032;-78
2022/05/22 07:48:10;;;;;;;0.10;0.10;;;;;;;;;;5114785;28;20027;-79
2022/05/22 07:50:36;;;;;;;0.10;0.10;;;;;;;;;;5132467;27;20490;-78
2022/05/22 07:53:03;;;;;;;0.10;0.10;;;;;;;;;;5135532;27;20019;-78
2022/05/22 07:55:29;;;;;;;0.10;0.10;;;;;;;;;;5135655;27;20443;-79
2022/05/22 07:57:55;;;;;;;0.10;0.10;;;;;;;;;;5135335;27;20030;-78
2022/05/22 08:00:22;;;;;;;0.10;0.10;;;;;;;;;;5135339;27;20015;-78
2022/05/22 08:02:48;;;;;;;0.10;0.10;;;;;;;;;;5135533;27;20470;-79
2022/05/22 08:05:15;;;;;;;0.10;0.10;;;;;;;;;;5134701;27;20023;-78
2022/05/22 08:07:41;;;;;;;0.10;0.10;;;;;;;;;;5135254;27;20035;-78
2022/05/22 08:10:08;;;;;;;0.10;0.10;;;;;;;;;;5128448;27;20088;-78
2022/05/22 08:12:38;;;;;;;0.10;0.10;;;;;;;;;;5096321;28;20041;-79
2022/05/22 08:15:05;;;;;;;0.10;0.10;;;;;;;;;;5113615;28;20147;-78
2022/05/22 08:17:36;;;;;;;0.10;0.10;;;;;;;;;;5119229;27;20055;-77
2022/05/22 08:20:02;;;;;;;0.10;0.10;;;;;;;;;;5095478;28;20012;-77
2022/05/22 08:22:28;;;;;;;0.10;0.10;;;;;;;;;;5113613;28;20495;-77
2022/05/22 08:24:54;;;;;;;0.10;0.10;;;;;;;;;;5120141;27;20456;-78
2022/05/22 08:27:20;;;;;;;0.10;0.10;;;;;;;;;;5114786;27;20538;-78
2022/05/22 08:29:46;;;;;;;0.10;0.10;;;;;;;;;;5113191;28;20024;-78
2022/05/22 08:32:12;;;;;;;0.10;0.10;;;;;;;;;;5114352;27;20038;-78
2022/05/22 08:34:38;;;;;;;0.10;0.10;;;;;;;;;;5095092;28;20035;-78
2022/05/22 08:37:04;;;;;;;0.10;0.10;;;;;;;;;;5124613;27;20058;-78
2022/05/22 08:39:32;;;;;;;0.10;0.10;;;;;;;;;;5127129;27;20024;-78
2022/05/22 08:41:59;;;;;;;0.10;0.10;;;;;;;;;;5116563;27;20027;-80
2022/05/22 08:44:32;;;;;;;0.10;0.10;;;;;;;;;;5113440;27;20035;-80
2022/05/22 08:47:03;;;;;;;0.10;0.10;;;;;;;;;;5130087;27;20020;-80
2022/05/22 08:49:29;;;;;;;0.10;0.10;;;;;;;;;;5131368;27;20505;-80
2022/05/22 08:52:04;;;;;;;0.10;0.10;;;;;;;;;;5120529;27;20019;-80
2022/05/22 08:54:32;;;;;;;0.10;0.10;;;;;;;;;;5121890;27;20482;-81
2022/05/22 08:59:47;;;;;;;0.10;0.10;;;;;;;;;;5120159;27;20026;-82
2022/05/22 09:02:16;;;;;;;0.10;0.10;;;;;;;;;;5103327;28;20020;-83
2022/05/22 09:04:53;;;;;;;0.10;0.10;;;;;;;;;;5100177;27;20490;-83
2022/05/22 09:07:21;;;;;;;0.10;0.10;;;;;;;;;;5119047;27;20106;-82
2022/05/22 09:09:58;;;;;;;0.10;0.10;;;;;;;;;;5124385;27;20038;-82
2022/05/22 09:12:28;;;;;;;0.10;0.10;;;;;;;;;;5115586;27;20111;-84
2022/05/22 09:15:08;;;;;;;0.10;0.10;;;;;;;;;;5100675;28;20042;-80
2022/05/22 09:17:40;;;;;;;0.10;0.10;;;;;;;;;;5114573;27;20024;-81
2022/05/22 09:20:18;;;;;;;0.10;0.10;;;;;;;;;;5133775;27;20098;-80
2022/05/22 09:22:53;;;;;;;0.10;0.10;;;;;;;;;;5133773;27;20135;-79
2022/05/22 09:25:19;;;;;;;0.10;0.10;;;;;;;;;;5127953;27;20036;-80
2022/05/22 09:27:48;;;;;;;0.10;0.10;;;;;;;;;;5133816;27;20143;-80
2022/05/22 09:30:35;;;;;;;0.10;0.10;;;;;;;;;;5130008;27;21512;-78
2022/05/22 09:33:07;;;;;;;0.10;0.10;;;;;;;;;;5092345;28;20040;-82
2022/05/22 09:35:33;;;;;;;0.15;0.15;;;;;;;;;;5092653;28;20490;-80
2022/05/22 09:38:08;;;;;;;0.10;0.10;;;;;;;;;;5108404;27;20110;-81
2022/05/22 09:40:48;;;;;;;0.10;0.10;;;;;;;;;;5114549;27;20024;-81
2022/05/22 09:43:26;;;;;;;0.15;0.15;;;;;;;;;;5088819;28;20039;-81
2022/05/22 09:46:12;;;;;;;0.10;0.10;;;;;;;;;;5072520;28;20028;-80
2022/05/22 09:48:52;;;;;;;0.10;0.10;;;;;;;;;;5090427;28;20047;-81
2022/05/22 09:51:18;;;;;;;0.10;0.10;;;;;;;;;;5091584;28;20020;-82
2022/05/22 09:53:59;;;;;;;0.13;0.13;;;;;;;;;;5074052;28;20035;-82
2022/05/22 09:56:37;;;;;;;0.10;0.10;;;;;;;;;;5073701;28;20039;-81
2022/05/22 09:59:18;;;;;;;0.10;0.10;;;;;;;;;;5073864;28;20016;-82
2022/05/22 10:01:45;;;;;;;0.10;0.10;;;;;;;;;;5091827;28;20110;-81
2022/05/22 10:04:14;;;;;;;0.03;0.03;;;;;;;;;;5074036;28;20016;-81
2022/05/22 10:06:59;;;;;;;0.10;0.10;;;;;;;;;;5073987;28;20495;-81
2022/05/22 10:09:25;;;;;;;0.10;0.10;;;;;;;;;;5074156;28;20028;-80
2022/05/22 10:12:10;;;;;;;0.10;0.10;;;;;;;;;;5092237;28;20020;-81
2022/05/22 10:14:55;;;;;;;0.10;0.10;;;;;;;;;;5073495;28;20476;-81
2022/05/22 10:17:23;;;;;;;;;;;;;;;;;;5074763;28;20047;-81
2022/05/22 10:20:01;;;;;;;0.10;0.10;;;;;;;;;;5091881;28;19911;-81
2022/05/22 10:22:33;;;;;;;0.10;0.10;;;;;;;;;;5073785;28;20022;-81
2022/05/22 10:25:09;;;;;;;0.10;0.10;;;;;;;;;;5073776;28;20391;-80
2022/05/22 10:27:54;;;;;;;0.10;0.10;;;;;;;;;;5073804;28;20494;-80
2022/05/22 10:30:22;;;;;;;0.10;0.10;;;;;;;;;;5091782;28;20157;-80
2022/05/22 10:33:03;;;;;;;0.10;0.10;;;;;;;;;;5073463;28;20491;-81
2022/05/22 10:35:49;;;;;;;0.10;0.10;;;;;;;;;;5073563;28;20059;-80
2022/05/22 10:38:23;;;;;;;0.10;0.10;;;;;;;;;;5107338;28;20398;-80
2022/05/22 10:43:36;;;;;;;0.10;0.10;;;;;;;;;;5091823;28;20055;-80
2022/05/22 10:46:03;;;;;;;0.10;0.10;;;;;;;;;;5091523;28;20060;-81
2022/05/22 10:48:31;;;;;;;0.10;0.10;;;;;;;;;;5073470;28;20062;-79
2022/05/22 10:51:08;;;;;;;0.10;0.10;;;;;;;;;;5091816;28;20023;-80
2022/05/22 10:53:37;;;;;;;0.10;0.10;;;;;;;;;;5091628;28;20016;-81
2022/05/22 10:56:03;;;;;;;0.10;0.10;;;;;;;;;;5073343;28;20126;-81
2022/05/22 10:58:31;;;;;;;0.10;0.10;;;;;;;;;;5091611;28;20154;-80
2022/05/22 11:00:58;;;;;;;0.10;0.10;;;;;;;;;;5091755;28;20472;-80
2022/05/22 11:03:26;;;;;;;0.00;0.00;;;;;;;;;;5073638;28;20020;-80
2022/05/22 11:05:52;;;;;;;0.10;0.10;;;;;;;;;;5091411;28;20039;-81
2022/05/22 11:08:28;;;;;;;0.10;0.10;;;;;;;;;;5092476;28;20020;-80
2022/05/22 11:10:54;;;;;;;;;;;;;;;;;;5095800;28;20388;-81
2022/05/22 11:13:20;;;;;;;;;;;;;;;;;;5095645;28;19911;-81
2022/05/22 11:15:46;;;;;;;0.10;0.10;;;;;;;;;;5095235;28;19915;-80
2022/05/22 11:18:19;;;;;;;0.10;0.10;;;;;;;;;;5095218;28;20478;-81
2022/05/22 11:20:48;;;;;;;0.10;0.10;;;;;;;;;;5095102;28;20016;-81
2022/05/22 11:23:29;;;;;;;0.10;0.10;;;;;;;;;;5095170;28;20119;-80
2022/05/22 11:25:58;;;;;;;0.10;0.10;;;;;;;;;;5076843;28;20031;-80
2022/05/22 11:28:27;;;;;;;0.10;0.10;;;;;;;;;;5095051;28;20111;-81
2022/05/22 11:31:01;;;;;;;0.10;0.10;;;;;;;;;;5076818;28;20020;-80
2022/05/22 11:33:37;;;;;;;0.10;0.10;;;;;;;;;;5077051;28;20082;-81
2022/05/22 11:36:03;;;;;;;;;;;;;;;;;;5077072;28;20039;-80
2022/05/22 11:38:29;;;;;;;;;;;;;;;;;;5095627;28;20002;-80
2022/05/22 11:41:01;;;;;;;0.10;0.10;;;;;;;;;;5110538;28;20355;-80
2022/05/22 11:43:31;;;;;;;0.10;0.10;;;;;;;;;;5076894;28;20024;-80
2022/05/22 11:46:00;;;;;;;0.10;0.10;;;;;;;;;;5094920;28;20047;-80
2022/05/22 11:48:35;;;;;;;0.10;0.10;;;;;;;;;;5094621;28;20024;-81
2022/05/22 11:51:19;;;;;;;0.10;0.10;;;;;;;;;;5094976;28;20028;-80
2022/05/22 11:53:52;;;;;;;0.10;0.10;;;;;;;;;;5076346;28;20123;-81
2022/05/22 11:56:21;;;;;;;0.10;0.10;;;;;;;;;;5094397;28;20036;-80
2022/05/22 11:59:06;;;;;;;0.10;0.10;;;;;;;;;;5076323;28;20365;-80
2022/05/22 12:01:38;;;;;;;0.10;0.10;;;;;;;;;;5094674;28;20498;-80
2022/05/22 12:04:22;;;;;;;0.10;0.10;;;;;;;;;;5094447;28;20110;-80
2022/05/22 12:06:58;;;;;;;0.10;0.10;;;;;;;;;;5094268;28;20101;-80
2022/05/22 12:09:32;;;;;;;0.10;0.10;;;;;;;;;;5076262;28;20113;-80
2022/05/22 12:12:01;;;;;;;0.10;0.10;;;;;;;;;;5094594;28;20122;-80
2022/05/22 12:14:27;;;;;;;0.20;0.20;;;;;;;;;;5094022;28;20032;-80
2022/05/22 12:16:53;;;;;;;0.10;0.10;;;;;;;;;;5093985;28;20047;-81
2022/05/22 12:19:19;;;;;;;0.10;0.10;;;;;;;;;;5093774;28;20016;-81
2022/05/22 12:21:52;;;;;;;0.10;0.10;;;;;;;;;;5075513;28;20038;-81
2022/05/22 12:24:21;;;;;;;0.10;0.10;;;;;;;;;;5094014;28;20059;-80
2022/05/22 12:26:47;;;;;;;0.10;0.10;;;;;;;;;;5093990;28;20056;-81
2022/05/22 12:29:34;;;;;;;0.10;0.10;;;;;;;;;;5093840;28;20024;-81
2022/05/22 12:32:04;;;;;;;0.10;0.10;;;;;;;;;;5093969;28;20542;-81
2022/05/22 12:34:35;;;;;;;0.10;0.10;;;;;;;;;;5094192;28;20024;-81
2022/05/22 12:37:01;;;;;;;0.10;0.10;;;;;;;;;;5094041;28;20089;-82
2022/05/22 12:39:30;;;;;;;0.10;0.10;;;;;;;;;;5093627;28;20379;-80
2022/05/22 12:42:06;;;;;;;0.05;0.05;;;;;;;;;;5093474;28;20446;-80
2022/05/22 12:44:32;;;;;;;0.10;0.10;;;;;;;;;;5093927;28;20111;-80
2022/05/22 12:46:58;;;;;;;0.10;0.10;;;;;;;;;;5093533;28;20025;-80
2022/05/22 12:49:29;;;;;;;0.10;0.10;;;;;;;;;;5075293;28;20126;-80
2022/05/22 12:52:06;;;;;;;0.10;0.10;;;;;;;;;;5075185;28;20453;-80
2022/05/22 12:54:38;;;;;;;0.10;0.10;;;;;;;;;;5093643;28;20047;-80
2022/05/22 12:57:10;;;;;;;0.10;0.10;;;;;;;;;;5093515;28;20032;-80
2022/05/22 12:59:36;;;;;;;0.00;0.00;;;;;;;;;;5093238;28;20475;-80
2022/05/22 13:02:03;;;;;;;0.10;0.10;;;;;;;;;;5093567;28;20024;-81
2022/05/22 13:04:34;;;;;;;0.10;0.10;;;;;;;;;;5093192;28;20032;-81
2022/05/22 13:07:09;;;;;;;0.05;0.05;;;;;;;;;;5093254;28;20028;-81
2022/05/22 13:09:35;;;;;;;0.10;0.10;;;;;;;;;;5093382;28;20075;-80
2022/05/22 13:12:07;;;;;;;0.10;0.10;;;;;;;;;;5093289;28;20020;-81
2022/05/22 13:14:40;;;;;;;0.10;0.10;;;;;;;;;;5093184;28;20042;-81
2022/05/22 13:17:07;;;;;;;0.10;0.10;;;;;;;;;;5093075;28;20505;-80
2022/05/22 13:19:33;;;;;;;0.10;0.10;;;;;;;;;;5093212;28;20100;-81
2022/05/22 13:22:09;;;;;;;0.10;0.10;;;;;;;;;;5074710;28;20034;-80
2022/05/22 13:24:38;;;;;;;0.10;0.10;;;;;;;;;;5093243;28;20035;-81
2022/05/22 13:27:06;;;;;;;0.10;0.10;;;;;;;;;;5093117;28;20429;-81
2022/05/22 13:29:42;;;;;;;0.10;0.10;;;;;;;;;;5093026;28;20024;-80
2022/05/22 13:32:14;;;;;;;0.10;0.10;;;;;;;;;;5091635;28;20020;-80
2022/05/22 13:34:39;;;;;;;0.10;0.10;;;;;;;;;;5092644;28;20066;-80
2022/05/22 13:37:07;;;;;;;0.10;0.10;;;;;;;;;;5092853;28;20475;-80
2022/05/22 13:39:35;;;;;;;0.10;0.10;;;;;;;;;;5092906;28;20032;-80
2022/05/22 13:42:02;;;;;;;0.10;0.10;;;;;;;;;;5092429;28;20028;-81
2022/05/22 13:44:46;;;;;;;0.10;0.10;;;;;;;;;;5092320;28;20039;-81
2022/05/22 13:47:31;;;;;;;0.10;0.10;;;;;;;;;;5092427;28;20105;-82
2022/05/22 13:52:57;;;;;;;0.10;0.10;;;;;;;;;;5092033;28;20081;-81
2022/05/22 13:55:25;;;;;;;0.10;0.10;;;;;;;;;;5073961;28;20035;-82
2022/05/22 13:58:04;;;;;;;0.10;0.10;;;;;;;;;;5092203;28;20103;-81
2022/05/22 14:00:34;;;;;;;0.10;0.10;;;;;;;;;;5092272;28;20044;-81
2022/05/22 14:03:18;;;;;;;0.10;0.10;;;;;;;;;;5092107;28;20031;-80
2022/05/22 14:05:45;;;;;;;0.10;0.10;;;;;;;;;;5092084;28;20048;-80
2022/05/22 14:08:21;;;;;;;0.10;0.10;;;;;;;;;;5092033;28;20066;-79
2022/05/22 14:10:48;;;;;;;0.10;0.10;;;;;;;;;;5073920;28;20031;-79
2022/05/22 14:13:22;;;;;;;0.10;0.10;;;;;;;;;;5091833;28;20050;-80
2022/05/22 14:15:59;;;;;;;0.10;0.10;;;;;;;;;;5091885;28;20060;-79
2022/05/22 14:18:32;;;;;;;0.10;0.10;;;;;;;;;;5092051;28;20101;-79
2022/05/22 14:20:59;;;;;;;0.10;0.10;;;;;;;;;;5091936;28;20032;-80
2022/05/22 14:24:51;;;;;;;0.10;0.10;;;;;;;;;;5091907;28;20447;-79
2022/05/22 14:26:24;;;;;;;0.10;0.10;;;;;;;;;;5091608;28;20086;-80
2022/05/22 14:28:52;;;;;;;0.10;0.10;;;;;;;;;;5092183;28;20022;-80
2022/05/22 14:31:18;;;;;;;0.03;0.03;;;;;;;;;;5073678;28;20517;-80
2022/05/22 14:33:45;;;;;;;0.10;0.10;;;;;;;;;;5091786;28;20108;-79
2022/05/22 14:36:17;;;;;;;0.10;0.10;;;;;;;;;;5091663;28;20107;-80
2022/05/22 14:38:47;;;;;;;0.10;0.10;;;;;;;;;;5073522;28;20024;-80
2022/05/22 14:41:16;;;;;;;0.10;0.10;;;;;;;;;;5073495;28;20038;-79
2022/05/22 14:43:43;;;;;;;0.10;0.10;;;;;;;;;;5093580;28;20024;-80
2022/05/22 14:46:12;;;;;;;0.10;0.10;;;;;;;;;;5096216;28;20029;-80
2022/05/22 14:48:39;;;;;;;0.10;0.10;;;;;;;;;;5096167;28;20598;-79
2022/05/22 14:51:24;;;;;;;0.10;0.10;;;;;;;;;;5095694;28;20032;-79
2022/05/22 14:53:55;;;;;;;0.10;0.10;;;;;;;;;;5095805;28;20027;-79
2022/05/22 14:56:23;;;;;;;0.10;0.10;;;;;;;;;;5077324;28;20074;-79
2022/05/22 14:58:56;;;;;;;0.10;0.10;;;;;;;;;;5095502;28;20094;-79
2022/05/22 15:01:29;;;;;;;0.10;0.10;;;;;;;;;;5095756;28;20090;-79
2022/05/22 15:03:57;;;;;;;0.10;0.10;;;;;;;;;;5095522;28;20070;-80
2022/05/22 15:06:31;;;;;;;0.10;0.10;;;;;;;;;;5077300;28;20028;-80
2022/05/22 15:09:01;;;;;;;0.10;0.10;;;;;;;;;;5095599;28;20016;-80
2022/05/22 15:11:27;;;;;;;0.10;0.10;;;;;;;;;;5095407;28;20067;-80
2022/05/22 15:13:58;;;;;;;0.10;0.10;;;;;;;;;;5095314;28;20035;-80
2022/05/22 15:16:26;;;;;;;0.10;0.10;;;;;;;;;;5095136;28;20039;-80
2022/05/22 15:21:41;;;;;;;0.10;0.10;;;;;;;;;;5095419;28;20038;-79
2022/05/22 15:27:00;;;;;;;0.10;0.10;;;;;;;;;;5095204;28;20395;-79
2022/05/22 15:29:31;;;;;;;0.10;0.10;;;;;;;;;;5095036;28;20107;-79